createdAt,value
2019-01-14T00:00:35.015Z,3.91
2019-01-14T00:03:41.955Z,3.95
2019-01-14T00:06:48.984Z,3.87
2019-01-14T00:09:55.914Z,3.91
2019-01-14T00:13:04.712Z,3.85
2019-01-14T00:16:11.870Z,3.88
2019-01-14T00:19:19.510Z,3.90
2019-01-14T00:22:26.603Z,3.88
2019-01-14T00:25:33.672Z,3.79
2019-01-14T00:28:43.993Z,3.94
2019-01-14T00:31:51.245Z,3.96
2019-01-14T00:34:58.268Z,3.92
2019-01-14T00:38:05.812Z,3.96
2019-01-14T00:41:15.784Z,3.86
2019-01-14T00:44:22.795Z,3.90
2019-01-14T00:47:29.727Z,3.89
2019-01-14T00:50:36.694Z,3.92
2019-01-14T00:53:43.633Z,3.95
2019-01-14T00:56:50.856Z,3.97
2019-01-14T00:59:57.789Z,3.94
2019-01-14T01:03:05.162Z,3.99
2019-01-14T01:06:12.091Z,3.85
2019-01-14T01:09:22.131Z,3.82
2019-01-14T01:12:29.134Z,3.87
2019-01-14T01:15:36.717Z,3.97
2019-01-14T01:18:43.635Z,3.86
2019-01-14T01:21:50.585Z,3.94
2019-01-14T01:24:57.677Z,3.84
2019-01-14T01:28:04.633Z,3.75
2019-01-14T01:31:11.550Z,3.80
2019-01-14T01:34:20.289Z,3.81
2019-01-14T01:37:27.303Z,3.74
2019-01-14T01:40:34.293Z,3.76
2019-01-14T01:43:41.234Z,3.63
2019-01-14T01:46:48.183Z,3.60
2019-01-14T01:49:56.081Z,3.49
2019-01-14T01:53:03.371Z,3.27
2019-01-14T01:56:10.337Z,3.11
2019-01-14T01:59:17.278Z,3.06
2019-01-14T02:02:26.914Z,3.03
2019-01-14T02:05:33.907Z,3.01
2019-01-14T02:08:40.842Z,3.06
2019-01-14T02:11:47.949Z,3.13
2019-01-14T02:14:54.996Z,3.16
2019-01-14T02:18:04.595Z,3.25
2019-01-14T02:21:11.555Z,3.16
2019-01-14T02:24:18.509Z,3.14
2019-01-14T02:27:27.693Z,3.21
2019-01-14T02:30:34.653Z,3.23
2019-01-14T02:33:41.576Z,3.30
2019-01-14T02:36:48.823Z,3.26
2019-01-14T02:39:55.760Z,3.18
2019-01-14T02:43:02.724Z,3.15
2019-01-14T02:46:10.652Z,3.20
2019-01-14T02:49:17.596Z,3.09
2019-01-14T02:52:27.265Z,3.17
2019-01-14T02:55:34.225Z,3.16
2019-01-14T02:58:41.184Z,3.15
2019-01-14T03:01:48.670Z,3.09
2019-01-14T03:04:55.682Z,3.07
2019-01-14T03:08:02.652Z,3.05
2019-01-14T03:11:09.582Z,3.09
2019-01-14T03:14:16.561Z,3.09
2019-01-14T03:17:26.649Z,3.08
2019-01-14T03:20:36.469Z,3.07
2019-01-14T03:23:43.409Z,3.15
2019-01-14T03:26:50.379Z,3.00
2019-01-14T03:29:58.697Z,3.04
2019-01-14T03:33:05.733Z,2.97
2019-01-14T03:36:12.713Z,3.04
2019-01-14T03:39:19.688Z,3.01
2019-01-14T03:42:26.628Z,2.95
2019-01-14T03:45:36.650Z,2.99
2019-01-14T03:48:43.571Z,2.93
2019-01-14T03:51:50.535Z,2.96
2019-01-14T03:54:57.473Z,2.96
2019-01-14T03:58:04.859Z,2.90
2019-01-14T04:01:11.791Z,2.87
2019-01-14T04:04:22.138Z,2.89
2019-01-14T04:07:32.572Z,2.85
2019-01-14T04:10:39.516Z,2.82
2019-01-14T04:13:46.429Z,2.86
2019-01-14T04:16:53.409Z,2.86
2019-01-14T04:20:00.370Z,2.76
2019-01-14T04:23:07.583Z,2.78
2019-01-14T04:26:17.788Z,2.75
2019-01-14T04:29:24.797Z,2.75
2019-01-14T04:32:34.905Z,2.69
2019-01-14T04:35:41.881Z,2.67
2019-01-14T04:38:49.097Z,2.66
2019-01-14T04:41:56.095Z,2.66
2019-01-14T04:45:03.021Z,2.63
2019-01-14T04:48:09.979Z,2.57
2019-01-14T04:51:16.895Z,2.67
2019-01-14T04:54:27.044Z,2.57
2019-01-14T04:57:34.042Z,2.51
2019-01-14T05:00:41.448Z,2.48
2019-01-14T05:03:48.371Z,2.45
2019-01-14T05:06:55.340Z,2.42
2019-01-14T05:10:02.263Z,2.42
2019-01-14T05:13:09.341Z,2.37
2019-01-14T05:16:19.478Z,2.37
2019-01-14T05:19:27.030Z,2.35
2019-01-14T05:22:33.985Z,2.40
2019-01-14T05:25:44.112Z,2.34
2019-01-14T05:28:51.066Z,2.32
2019-01-14T05:31:58.121Z,2.31
2019-01-14T05:35:05.946Z,2.24
2019-01-14T05:38:12.906Z,2.19
2019-01-14T05:41:19.825Z,2.13
2019-01-14T05:44:26.792Z,2.08
2019-01-14T05:47:33.803Z,2.04
2019-01-14T05:50:43.083Z,1.94
2019-01-14T05:53:54.735Z,1.91
2019-01-14T05:57:01.700Z,1.80
2019-01-14T06:00:18.083Z,1.75
2019-01-14T06:03:25.061Z,1.64
2019-01-14T06:06:31.981Z,1.63
2019-01-14T06:09:39.616Z,1.59
2019-01-14T06:12:49.594Z,1.51
2019-01-14T06:15:56.560Z,1.50
2019-01-14T06:19:03.457Z,1.49
2019-01-14T06:22:10.420Z,1.42
2019-01-14T06:25:17.592Z,1.33
2019-01-14T06:28:24.994Z,1.32
2019-01-14T06:31:31.907Z,1.25
2019-01-14T06:34:39.348Z,1.19
2019-01-14T06:37:52.347Z,1.22
2019-01-14T06:40:55.030Z,1.26
2019-01-14T06:44:02.951Z,1.31
2019-01-14T06:47:09.910Z,1.41
2019-01-14T06:50:19.071Z,1.40
2019-01-14T06:53:26.036Z,1.42
2019-01-14T06:56:33.001Z,1.40
2019-01-14T06:59:41.053Z,1.36
2019-01-14T07:02:48.503Z,1.33
2019-01-14T07:05:55.512Z,1.30
2019-01-14T07:09:02.723Z,1.32
2019-01-14T07:12:09.688Z,1.31
2019-01-14T07:15:16.595Z,1.29
2019-01-14T07:18:23.554Z,1.28
2019-01-14T07:21:30.475Z,1.27
2019-01-14T07:24:38.306Z,1.30
2019-01-14T07:27:47.001Z,1.31
2019-01-14T07:30:54.507Z,1.24
2019-01-14T07:34:01.458Z,1.23
2019-01-14T07:37:09.204Z,1.26
2019-01-14T07:40:16.813Z,1.25
2019-01-14T07:43:23.769Z,1.26
2019-01-14T07:46:30.693Z,1.26
2019-01-14T07:49:37.943Z,1.28
2019-01-14T07:52:48.414Z,1.32
2019-01-14T07:55:55.499Z,1.32
2019-01-14T07:59:02.611Z,1.31
2019-01-14T08:02:09.581Z,1.38
2019-01-14T08:05:16.500Z,1.42
2019-01-14T08:08:24.070Z,1.41
2019-01-14T08:11:31.002Z,1.38
2019-01-14T08:14:37.956Z,1.41
2019-01-14T08:17:45.277Z,1.41
2019-01-14T08:20:52.466Z,1.48
2019-01-14T08:24:01.015Z,1.57
2019-01-14T08:27:07.995Z,1.60
2019-01-14T08:30:20.934Z,1.56
2019-01-14T08:33:28.602Z,1.50
2019-01-14T08:36:35.528Z,1.46
2019-01-14T08:39:42.512Z,1.38
2019-01-14T08:42:51.086Z,1.37
2019-01-14T08:45:59.510Z,1.38
2019-01-14T08:49:06.484Z,1.38
2019-01-14T08:52:13.512Z,1.37
2019-01-14T08:55:20.592Z,1.38
2019-01-14T08:58:27.690Z,1.36
2019-01-14T09:01:34.614Z,1.37
2019-01-14T09:04:41.575Z,1.41
2019-01-14T09:07:48.742Z,1.43
2019-01-14T09:10:57.495Z,1.43
2019-01-14T09:14:04.402Z,1.46
2019-01-14T09:17:11.351Z,1.49
2019-01-14T09:20:20.993Z,1.46
2019-01-14T09:23:27.941Z,1.48
2019-01-14T09:26:34.852Z,1.51
2019-01-14T09:29:41.810Z,1.50
2019-01-14T09:32:48.910Z,1.53
2019-01-14T09:35:57.574Z,1.57
2019-01-14T09:39:07.315Z,1.55
2019-01-14T09:42:15.371Z,1.60
2019-01-14T09:45:22.291Z,1.65
2019-01-14T09:48:29.919Z,1.67
2019-01-14T09:51:37.901Z,1.66
2019-01-14T09:54:44.859Z,1.57
2019-01-14T09:57:51.978Z,1.58
2019-01-14T10:00:58.935Z,1.60
2019-01-14T10:04:05.844Z,1.72
2019-01-14T10:07:12.791Z,1.74
2019-01-14T10:10:20.958Z,1.76
2019-01-14T10:13:27.890Z,1.64
2019-01-14T10:16:34.978Z,1.47
2019-01-14T10:19:42.118Z,1.39
2019-01-14T10:22:49.028Z,1.36
2019-01-14T10:25:56.871Z,1.30
2019-01-14T10:29:07.192Z,1.29
2019-01-14T10:32:14.224Z,1.30
2019-01-14T10:35:21.121Z,0.54
2019-01-14T10:38:28.818Z,0.21
2019-01-14T10:41:35.803Z,0.20
2019-01-14T10:44:42.775Z,0.29
2019-01-14T10:47:49.794Z,0.41
2019-01-14T10:50:56.949Z,0.43
2019-01-14T10:54:03.885Z,0.45
2019-01-14T10:57:12.053Z,0.48
2019-01-14T11:00:22.393Z,0.40
2019-01-14T11:03:29.481Z,0.40
2019-01-14T11:06:36.403Z,0.51
2019-01-14T11:09:44.658Z,0.64
2019-01-14T11:12:52.083Z,0.75
2019-01-14T11:15:59.147Z,0.79
2019-01-14T11:19:06.807Z,0.80
2019-01-14T11:22:13.917Z,0.74
2019-01-14T11:25:21.659Z,0.70
2019-01-14T11:28:28.870Z,0.62
2019-01-14T11:31:35.807Z,0.68
2019-01-14T11:34:44.972Z,0.68
2019-01-14T11:37:51.884Z,0.63
2019-01-14T11:40:59.121Z,0.67
2019-01-14T11:44:06.092Z,1.46
2019-01-14T11:47:13.196Z,1.50
2019-01-14T11:50:20.119Z,1.15
2019-01-14T11:53:27.141Z,1.46
2019-01-14T11:56:34.360Z,1.56
2019-01-14T11:59:41.668Z,1.26
2019-01-14T12:02:48.685Z,1.43
2019-01-14T12:05:57.653Z,1.73
2019-01-14T12:09:12.168Z,1.72
2019-01-14T12:12:14.793Z,1.60
2019-01-14T12:15:29.039Z,1.45
2019-01-14T12:18:36.008Z,1.28
2019-01-14T12:21:42.949Z,1.69
2019-01-14T12:24:50.098Z,1.75
2019-01-14T12:27:57.115Z,1.63
2019-01-14T12:31:04.121Z,1.80
2019-01-14T12:34:11.037Z,1.45
2019-01-14T12:37:18.001Z,1.65
2019-01-14T12:40:25.349Z,1.47
2019-01-14T12:43:33.607Z,1.68
2019-01-14T12:46:43.495Z,1.71
2019-01-14T12:49:50.439Z,1.66
2019-01-14T12:52:57.429Z,1.47
2019-01-14T12:56:04.385Z,1.47
2019-01-14T12:59:11.292Z,1.48
2019-01-14T13:02:18.255Z,1.47
2019-01-14T13:05:25.851Z,1.51
2019-01-14T13:08:32.870Z,1.44
2019-01-14T13:11:39.833Z,1.39
2019-01-14T13:14:46.766Z,1.33
2019-01-14T13:17:58.045Z,1.46
2019-01-14T13:21:05.223Z,1.44
2019-01-14T13:24:12.234Z,1.39
2019-01-14T13:27:19.277Z,1.27
2019-01-14T13:30:29.298Z,1.33
2019-01-14T13:33:36.247Z,1.20
2019-01-14T13:36:43.204Z,1.46
2019-01-14T13:39:53.220Z,1.60
2019-01-14T13:43:00.836Z,1.63
2019-01-14T13:46:08.292Z,1.52
2019-01-14T13:49:15.229Z,1.59
2019-01-14T13:52:23.523Z,1.42
2019-01-14T13:55:30.515Z,1.47
2019-01-14T13:58:37.464Z,1.52
2019-01-14T14:01:44.406Z,1.45
2019-01-14T14:04:51.616Z,1.53
2019-01-14T14:07:58.606Z,1.54
2019-01-14T14:11:05.555Z,1.61
2019-01-14T14:14:12.585Z,1.62
2019-01-14T14:17:19.533Z,1.57
2019-01-14T14:20:26.602Z,1.58
2019-01-14T14:23:33.620Z,1.54
2019-01-14T14:26:40.540Z,1.58
2019-01-14T14:29:48.777Z,1.54
2019-01-14T14:32:55.706Z,1.76
2019-01-14T14:36:02.765Z,1.53
2019-01-14T14:39:11.024Z,1.57
2019-01-14T14:42:18.075Z,1.57
2019-01-14T14:45:24.987Z,1.58
2019-01-14T14:48:32.212Z,1.42
2019-01-14T14:51:39.297Z,1.45
2019-01-14T14:54:46.375Z,1.43
2019-01-14T14:57:53.293Z,1.39
2019-01-14T15:01:02.728Z,1.39
2019-01-14T15:04:09.714Z,1.36
2019-01-14T15:07:18.298Z,1.20
2019-01-14T15:10:25.314Z,1.14
2019-01-14T15:13:32.286Z,0.99
2019-01-14T15:16:39.274Z,0.95
2019-01-14T15:19:46.241Z,1.00
2019-01-14T15:22:53.160Z,1.01
2019-01-14T15:26:01.597Z,0.94
2019-01-14T15:29:09.909Z,0.99
2019-01-14T15:32:17.918Z,1.02
2019-01-14T15:35:24.963Z,-0.34
2019-01-14T15:38:33.030Z,-0.96
2019-01-14T15:41:39.983Z,-0.93
2019-01-14T15:44:46.947Z,-1.16
2019-01-14T15:47:53.861Z,-1.04
2019-01-14T15:51:01.180Z,-1.16
2019-01-14T15:54:08.131Z,-1.17
2019-01-14T15:57:15.089Z,-1.13
2019-01-14T16:00:22.231Z,-1.04
2019-01-14T16:03:30.301Z,-0.91
2019-01-14T16:06:37.238Z,-0.87
2019-01-14T16:09:47.384Z,-0.68
2019-01-14T16:12:54.316Z,-0.57
2019-01-14T16:16:01.277Z,-0.31
2019-01-14T16:19:08.214Z,-0.52
2019-01-14T16:22:15.187Z,-0.42
2019-01-14T16:25:22.240Z,-0.40
2019-01-14T16:28:29.203Z,-0.54
2019-01-14T16:31:36.131Z,-0.63
2019-01-14T16:34:45.289Z,-0.62
2019-01-14T16:37:52.483Z,-0.50
2019-01-14T16:40:59.676Z,-0.44
2019-01-14T16:44:06.690Z,-0.28
2019-01-14T16:47:13.826Z,-0.22
2019-01-14T16:50:20.950Z,-0.23
2019-01-14T16:53:28.226Z,-0.08
2019-01-14T16:56:36.878Z,-0.15
2019-01-14T16:59:44.320Z,-0.12
2019-01-14T17:02:51.419Z,-0.02
2019-01-14T17:17:02.030Z,-0.43
2019-01-14T17:20:14.455Z,-0.30
2019-01-14T17:23:21.828Z,-0.29
2019-01-14T17:26:29.127Z,-0.35
2019-01-14T17:29:38.496Z,-0.32
2019-01-14T17:32:45.538Z,-0.54
2019-01-14T17:35:52.688Z,-0.55
2019-01-14T17:38:59.722Z,-0.35
2019-01-14T17:42:06.770Z,-0.36
2019-01-14T17:45:15.453Z,-0.39
2019-01-14T17:48:22.479Z,-0.41
2019-01-14T17:51:29.560Z,-0.49
2019-01-14T17:54:36.947Z,-0.42
2019-01-14T17:57:43.950Z,-0.26
2019-01-14T18:00:51.097Z,-0.41
2019-01-14T18:03:58.103Z,-0.44
2019-01-14T18:07:05.474Z,-0.36
2019-01-14T18:10:14.949Z,-0.46
2019-01-14T18:13:22.170Z,-0.48
2019-01-14T18:16:29.261Z,-0.44
2019-01-14T18:19:36.394Z,-0.66
2019-01-14T18:22:44.757Z,-0.65
2019-01-14T18:25:51.844Z,-0.49
2019-01-14T18:28:58.963Z,-0.68
2019-01-14T18:32:06.630Z,-0.50
2019-01-14T18:35:13.868Z,-0.46
2019-01-14T18:38:20.850Z,-0.38
2019-01-14T18:41:30.328Z,-0.49
2019-01-14T18:44:37.497Z,-0.45
2019-01-14T18:47:44.534Z,-0.37
2019-01-14T18:50:51.692Z,-0.58
2019-01-14T18:53:58.717Z,-0.59
2019-01-14T18:57:07.636Z,-0.50
2019-01-14T19:00:22.314Z,-0.47
2019-01-14T19:03:29.699Z,-0.66
2019-01-14T19:06:36.687Z,-0.63
2019-01-14T19:09:44.048Z,-0.60
2019-01-14T19:12:51.200Z,-0.59
2019-01-14T19:15:58.147Z,-0.73
2019-01-14T19:19:06.889Z,-0.62
2019-01-14T19:22:18.112Z,-0.69
2019-01-14T19:25:35.489Z,-0.67
2019-01-14T19:28:44.683Z,-1.00
2019-01-14T19:32:07.059Z,-0.70
2019-01-14T19:35:17.065Z,-0.87
2019-01-14T19:38:29.710Z,-0.88
2019-01-14T19:41:38.417Z,-0.70
2019-01-14T19:44:47.064Z,-0.56
2019-01-14T19:47:54.140Z,-0.54
2019-01-14T19:51:01.398Z,-0.44
2019-01-14T19:54:08.569Z,-0.77
2019-01-14T19:57:16.778Z,-0.46
2019-01-14T20:00:31.718Z,-0.44
2019-01-14T20:03:38.802Z,-0.56
2019-01-14T20:06:45.856Z,-0.45
2019-01-14T20:09:52.888Z,-0.48
2019-01-14T20:12:59.923Z,-0.53
2019-01-14T20:16:07.071Z,-0.47
2019-01-14T20:19:14.205Z,-0.46
2019-01-14T20:22:21.577Z,-0.58
2019-01-14T20:25:28.879Z,-0.70
2019-01-14T20:28:35.979Z,-0.80
2019-01-14T20:31:43.216Z,-0.69
2019-01-14T20:34:54.084Z,-0.71
2019-01-14T20:38:06.019Z,-0.74
2019-01-14T20:41:17.530Z,-0.79
2019-01-14T20:44:27.284Z,-0.78
2019-01-14T20:47:36.116Z,-0.71
2019-01-14T20:50:46.799Z,-0.77
2019-01-14T20:53:55.870Z,-0.71
2019-01-14T20:57:04.706Z,-0.74
2019-01-14T21:00:20.441Z,-0.87
2019-01-14T21:03:27.503Z,-0.89
2019-01-14T21:06:34.603Z,-0.76
2019-01-14T21:09:41.570Z,-0.81
2019-01-14T21:12:48.575Z,-0.71
2019-01-14T21:16:02.583Z,-0.78
2019-01-14T21:19:05.141Z,-0.74
2019-01-14T21:22:12.124Z,-0.81
2019-01-14T21:25:19.247Z,-0.64
2019-01-14T21:28:26.368Z,-0.60
2019-01-14T21:31:33.309Z,-0.53
2019-01-14T21:34:40.407Z,-0.62
2019-01-14T21:37:47.536Z,-0.69
2019-01-14T21:40:54.619Z,-0.54
2019-01-14T21:44:01.640Z,-0.56
2019-01-14T21:47:08.735Z,-0.44
2019-01-14T21:50:18.140Z,-0.55
2019-01-14T21:53:25.198Z,-0.45
2019-01-14T21:56:32.150Z,-0.49
2019-01-14T21:59:39.191Z,-0.54
2019-01-14T22:02:47.582Z,-0.58
2019-01-14T22:05:54.685Z,-0.52
2019-01-14T22:09:01.703Z,-0.54
2019-01-14T22:12:10.025Z,-0.55
2019-01-14T22:15:17.713Z,-0.46
2019-01-14T22:18:24.752Z,-0.54
2019-01-14T22:21:31.674Z,-0.60
2019-01-14T22:24:43.025Z,-0.53
2019-01-14T22:27:50.282Z,-0.49
2019-01-14T22:30:57.293Z,-0.54
2019-01-14T22:34:04.337Z,-0.45
2019-01-14T22:37:11.462Z,-0.58
2019-01-14T22:40:18.558Z,-0.62
2019-01-14T22:43:26.953Z,-0.53
2019-01-14T22:46:34.010Z,-0.59
2019-01-14T22:49:41.065Z,-0.45
2019-01-14T22:52:48.121Z,-0.55
2019-01-14T22:55:55.119Z,-0.42
2019-01-14T22:59:02.084Z,-0.44
2019-01-14T23:02:09.789Z,-0.46
2019-01-14T23:05:17.070Z,-0.48
2019-01-14T23:08:24.139Z,-0.50
2019-01-14T23:11:31.201Z,-0.39
2019-01-14T23:14:38.276Z,-0.41
2019-01-14T23:17:45.269Z,-0.41
2019-01-14T23:20:52.537Z,-0.39
2019-01-14T23:23:59.487Z,-0.39
2019-01-14T23:27:06.502Z,-0.37
2019-01-14T23:30:13.468Z,-0.36
2019-01-14T23:33:20.405Z,-0.33
2019-01-14T23:36:27.331Z,-0.26
2019-01-14T23:39:34.414Z,-0.29
2019-01-14T23:42:41.411Z,-0.30
2019-01-14T23:45:48.804Z,-0.29
2019-01-14T23:48:55.790Z,-0.26
2019-01-14T23:52:02.868Z,-0.20
2019-01-14T23:55:09.846Z,-0.18
2019-01-14T23:58:16.892Z,-0.19
